Time;durP1;ratioP1;P1;durP2;ratioP2;P2;SDS_P1;SDS_P2;PMS_P1;PMS_P2;Temp;Humidity;BMP_temperature;BMP_pressure;BME280_temperature;BME280_humidity;BME280_pressure;Samples;Min_cycle;Max_cycle;Signal;HPM_P1;HPM_P2
2024/02/19 00:00:19;;;;;;;0.80;0.40;;;10.70;1.00;;;;;;5098067;28;20520;-42
2024/02/19 00:02:45;;;;;;;0.93;0.50;;;10.70;1.00;;;;;;5097450;28;20477;-44
2024/02/19 00:05:11;;;;;;;1.40;0.50;;;10.70;1.00;;;;;;5098231;28;20222;-43
2024/02/19 00:07:37;;;;;;;0.70;0.33;;;10.70;1.00;;;;;;5064078;28;20216;-45
2024/02/19 00:10:03;;;;;;;1.00;0.53;;;10.70;1.00;;;;;;5098233;28;20173;-41
2024/02/19 00:12:30;;;;;;;1.07;0.50;;;10.70;1.00;;;;;;5095534;28;20431;-42
2024/02/19 00:14:55;;;;;;;0.70;0.40;;;10.70;1.00;;;;;;5078847;28;20447;-45
2024/02/19 00:17:21;;;;;;;0.70;0.40;;;10.70;1.00;;;;;;5077057;28;20451;-41
2024/02/19 00:19:46;;;;;;;0.80;0.37;;;10.70;1.00;;;;;;5077804;28;20189;-42
2024/02/19 00:22:12;;;;;;;0.83;0.43;;;10.70;1.00;;;;;;5061038;28;20196;-41
2024/02/19 00:24:39;;;;;;;0.80;0.40;;;10.70;1.00;;;;;;5077674;28;20283;-42
2024/02/19 00:27:05;;;;;;;2.00;0.60;;;10.70;1.00;;;;;;5078222;28;20177;-42
2024/02/19 00:29:30;;;;;;;0.80;0.40;;;10.70;1.00;;;;;;5078341;28;20408;-45
2024/02/19 00:31:56;;;;;;;1.27;0.40;;;10.70;1.00;;;;;;5077391;28;20449;-43
2024/02/19 00:34:21;;;;;;;0.90;0.50;;;10.70;1.00;;;;;;5077138;28;20185;-41
2024/02/19 00:36:47;;;;;;;1.17;0.40;;;10.70;1.00;;;;;;5077545;28;20551;-42
2024/02/19 00:39:13;;;;;;;1.00;0.40;;;10.70;1.00;;;;;;5078164;28;20176;-41
2024/02/19 00:41:39;;;;;;;1.30;0.77;;;10.60;1.00;;;;;;5077349;28;20625;-41
2024/02/19 00:44:05;;;;;;;0.70;0.40;;;10.70;1.00;;;;;;5078294;28;20508;-43
2024/02/19 00:46:31;;;;;;;1.03;0.57;;;10.60;1.00;;;;;;5059208;28;20216;-41
2024/02/19 00:48:57;;;;;;;0.70;0.40;;;10.60;1.00;;;;;;5058680;28;20443;-43
2024/02/19 00:51:23;;;;;;;0.80;0.40;;;10.60;1.00;;;;;;5075336;28;20716;-41
2024/02/19 00:53:48;;;;;;;0.90;0.50;;;10.60;1.00;;;;;;5074247;28;20234;-43
2024/02/19 00:56:14;;;;;;;2.80;0.63;;;10.60;1.00;;;;;;5075291;28;20195;-44
2024/02/19 00:58:39;;;;;;;2.47;0.70;;;11.50;1.00;;;;;;5075517;28;20273;-43
2024/02/19 01:01:05;;;;;;;1.33;0.50;;;13.20;1.00;;;;;;5075345;28;20199;-46
2024/02/19 01:03:31;;;;;;;2.40;0.80;;;14.20;99.90;;;;;;5076595;28;20276;-46
2024/02/19 01:05:56;;;;;;;4.53;0.73;;;15.20;1.00;;;;;;5076733;28;20205;-45
2024/02/19 01:08:22;;;;;;;1.63;0.60;;;16.00;1.00;;;;;;5076528;28;20265;-44
2024/02/19 01:10:47;;;;;;;1.33;0.60;;;16.70;32.80;;;;;;5076573;28;20177;-46
2024/02/19 01:13:13;;;;;;;1.20;0.40;;;17.10;99.90;;;;;;5076711;28;20190;-45
2024/02/19 01:15:38;;;;;;;1.17;0.43;;;17.30;99.90;;;;;;5076585;28;20189;-45
2024/02/19 01:18:04;;;;;;;1.20;0.30;;;17.50;1.00;;;;;;5058803;28;20180;-41
2024/02/19 01:20:30;;;;;;;0.93;0.30;;;17.30;1.00;;;;;;5077183;28;20173;-44
2024/02/19 01:22:57;;;;;;;0.70;0.30;;;16.60;1.00;;;;;;5077161;28;20438;-42
2024/02/19 01:25:24;;;;;;;1.13;0.30;;;15.80;1.00;;;;;;5077227;28;20494;-41
2024/02/19 01:27:50;;;;;;;0.70;0.30;;;15.00;1.00;;;;;;5077190;28;20509;-41
2024/02/19 01:30:15;;;;;;;1.57;0.30;;;14.40;99.90;;;;;;5042474;28;20432;-42
2024/02/19 01:32:41;;;;;;;0.70;0.20;;;13.90;30.20;;;;;;5076778;28;20615;-43
2024/02/19 01:35:10;;;;;;;0.80;0.40;;;13.40;1.00;;;;;;5058586;28;20185;-42
2024/02/19 01:37:35;;;;;;;1.13;0.30;;;13.00;99.90;;;;;;5074011;28;20181;-42
2024/02/19 01:40:08;;;;;;;0.80;0.20;;;12.70;99.90;;;;;;5075325;28;20504;-43
2024/02/19 01:42:35;;;;;;;0.80;0.40;;;12.40;1.00;;;;;;5060086;28;20493;-42
2024/02/19 01:45:01;;;;;;;0.73;0.30;;;12.20;99.90;;;;;;5076143;28;20543;-46
2024/02/19 01:47:27;;;;;;;0.70;0.20;;;12.00;1.00;;;;;;5073785;28;20699;-41
2024/02/19 01:49:52;;;;;;;0.80;0.30;;;11.90;1.00;;;;;;5074326;28;20423;-42
2024/02/19 01:52:19;;;;;;;0.80;0.30;;;11.80;99.90;;;;;;5076243;28;20185;-41
2024/02/19 01:54:44;;;;;;;0.60;0.20;;;11.60;99.90;;;;;;5076682;28;20192;-41
2024/02/19 01:57:10;;;;;;;0.80;0.30;;;11.50;99.90;;;;;;5058319;28;20431;-43
2024/02/19 01:59:35;;;;;;;0.70;0.20;;;11.50;99.90;;;;;;5075143;28;20183;-41
2024/02/19 02:02:02;;;;;;;1.77;0.30;;;11.40;99.90;;;;;;5058933;28;20189;-41
2024/02/19 02:04:28;;;;;;;0.63;0.27;;;11.30;1.00;;;;;;5076852;28;20264;-42
2024/02/19 02:06:53;;;;;;;0.70;0.30;;;11.30;1.00;;;;;;5076234;28;20510;-42
2024/02/19 02:09:19;;;;;;;0.70;0.30;;;11.20;1.00;;;;;;5076200;28;20462;-41
2024/02/19 02:11:45;;;;;;;0.70;0.30;;;11.20;1.00;;;;;;5057086;28;20169;-43
2024/02/19 02:14:10;;;;;;;0.83;0.30;;;11.20;1.00;;;;;;5058770;28;20516;-42
2024/02/19 02:16:36;;;;;;;1.67;0.30;;;11.20;1.00;;;;;;5077228;28;20193;-41
2024/02/19 02:19:01;;;;;;;0.80;0.30;;;11.20;1.00;;;;;;5076406;28;20478;-43
2024/02/19 02:21:27;;;;;;;0.70;0.30;;;11.10;1.00;;;;;;5077695;28;20181;-41
2024/02/19 02:23:53;;;;;;;0.80;0.30;;;11.10;1.00;;;;;;5079495;28;20181;-41
2024/02/19 02:26:18;;;;;;;0.77;0.30;;;11.00;1.00;;;;;;5061654;28;20495;-41
2024/02/19 02:28:44;;;;;;;1.00;0.30;;;11.00;1.00;;;;;;5062164;28;20265;-41
2024/02/19 02:31:10;;;;;;;1.50;0.30;;;11.00;1.00;;;;;;5079152;28;20178;-42
2024/02/19 02:33:35;;;;;;;1.13;0.30;;;11.00;1.00;;;;;;5080432;28;20502;-43
2024/02/19 02:36:02;;;;;;;1.80;0.50;;;10.90;1.00;;;;;;5079100;28;20282;-44
2024/02/19 02:38:28;;;;;;;1.10;0.50;;;10.90;1.00;;;;;;5077566;28;20183;-42
2024/02/19 02:40:54;;;;;;;0.83;0.30;;;11.00;1.00;;;;;;5078834;28;20816;-43
2024/02/19 02:43:20;;;;;;;1.07;0.50;;;10.90;1.00;;;;;;5078549;28;20510;-42
2024/02/19 02:45:46;;;;;;;0.90;0.47;;;10.90;1.00;;;;;;5077972;28;20474;-43
2024/02/19 02:48:12;;;;;;;0.80;0.40;;;10.90;6.10;;;;;;5078969;28;20419;-42
2024/02/19 02:50:37;;;;;;;0.80;0.40;;;10.90;8.20;;;;;;5078740;28;20169;-41
2024/02/19 02:53:03;;;;;;;1.17;0.40;;;10.90;10.50;;;;;;5078764;28;20181;-44
2024/02/19 02:55:29;;;;;;;1.20;0.40;;;10.90;25.70;;;;;;5079081;28;20185;-44
2024/02/19 02:57:54;;;;;;;0.70;0.30;;;10.90;40.80;;;;;;5080212;28;20250;-41
2024/02/19 03:00:20;;;;;;;0.90;0.40;;;10.90;54.60;;;;;;5061406;28;20197;-42
2024/02/19 03:02:46;;;;;;;0.80;0.50;;;10.80;84.60;;;;;;5080895;28;20260;-42
2024/02/19 03:05:12;;;;;;;1.20;0.40;;;10.90;96.60;;;;;;5080589;28;20549;-39
2024/02/19 03:07:38;;;;;;;1.10;0.50;;;10.90;99.90;;;;;;5078683;28;20741;-47
2024/02/19 03:10:05;;;;;;;1.10;0.60;;;10.80;99.90;;;;;;5077982;28;20247;-44
2024/02/19 03:12:30;;;;;;;2.50;0.50;;;10.80;99.90;;;;;;5078302;28;20430;-43
2024/02/19 03:14:56;;;;;;;1.00;0.50;;;10.80;99.90;;;;;;5079064;28;20568;-43
2024/02/19 03:17:22;;;;;;;1.47;0.57;;;10.80;99.90;;;;;;5079897;28;20164;-43
2024/02/19 03:19:47;;;;;;;0.80;0.40;;;10.80;99.90;;;;;;5081254;28;20188;-43
2024/02/19 03:22:13;;;;;;;1.00;0.40;;;10.80;99.90;;;;;;5138839;27;20183;-42
2024/02/19 03:24:39;;;;;;;1.07;0.60;;;10.90;99.90;;;;;;5139701;27;20863;-43
2024/02/19 03:27:05;;;;;;;1.20;0.50;;;10.80;99.90;;;;;;5141046;27;20531;-44
2024/02/19 03:29:30;;;;;;;0.90;0.50;;;10.80;99.90;;;;;;5140969;27;20439;-43
2024/02/19 03:31:56;;;;;;;0.87;0.40;;;10.80;99.90;;;;;;5141080;27;20195;-43
2024/02/19 03:34:22;;;;;;;1.37;0.50;;;10.80;99.90;;;;;;5141749;27;20515;-46
2024/02/19 03:36:49;;;;;;;0.90;0.50;;;10.80;99.90;;;;;;5139968;27;20421;-40
2024/02/19 03:39:16;;;;;;;0.90;0.50;;;10.80;99.90;;;;;;5139441;27;20228;-40
2024/02/19 03:41:42;;;;;;;1.00;0.60;;;10.80;99.90;;;;;;5140479;27;20445;-40
2024/02/19 03:44:07;;;;;;;2.40;0.70;;;10.80;99.90;;;;;;5140840;27;20442;-42
2024/02/19 03:46:33;;;;;;;0.93;0.60;;;10.80;99.90;;;;;;5140737;27;20206;-42
2024/02/19 03:48:58;;;;;;;1.43;0.53;;;10.80;99.90;;;;;;5138797;27;20171;-42
2024/02/19 03:51:24;;;;;;;1.33;0.57;;;10.80;99.90;;;;;;5139380;27;20175;-42
2024/02/19 03:53:50;;;;;;;1.37;0.70;;;10.80;99.90;;;;;;5140341;27;20552;-42
2024/02/19 03:56:17;;;;;;;0.90;0.50;;;10.80;99.90;;;;;;5140762;27;20183;-42
2024/02/19 03:58:43;;;;;;;1.70;0.60;;;10.80;99.90;;;;;;5122514;27;20179;-45
2024/02/19 04:01:08;;;;;;;0.90;0.50;;;10.80;99.90;;;;;;5139673;27;20424;-44
2024/02/19 04:03:34;;;;;;;1.47;0.60;;;10.80;99.90;;;;;;5120473;27;20473;-42
2024/02/19 04:05:59;;;;;;;1.00;0.60;;;10.80;99.90;;;;;;5140068;27;20217;-43
2024/02/19 04:08:25;;;;;;;1.50;0.73;;;10.70;99.90;;;;;;5140841;27;20175;-44
2024/02/19 04:10:51;;;;;;;1.27;0.63;;;10.70;99.90;;;;;;5140260;27;20480;-44
2024/02/19 04:13:16;;;;;;;1.07;0.50;;;10.80;99.90;;;;;;5138745;27;20201;-45
2024/02/19 04:15:42;;;;;;;2.33;0.93;;;10.70;99.90;;;;;;5138875;27;20175;-43
2024/02/19 04:18:07;;;;;;;1.10;0.60;;;10.80;99.90;;;;;;5137283;27;20177;-43
2024/02/19 04:20:33;;;;;;;1.40;0.90;;;10.70;99.90;;;;;;5137408;27;20435;-43
2024/02/19 04:22:59;;;;;;;1.30;0.87;;;10.70;99.90;;;;;;5141382;27;20219;-43
2024/02/19 04:25:25;;;;;;;1.10;0.80;;;10.70;99.90;;;;;;5122310;27;20293;-42
2024/02/19 04:27:51;;;;;;;3.50;1.10;;;10.70;99.90;;;;;;5140009;27;20172;-43
2024/02/19 04:30:17;;;;;;;1.20;0.90;;;10.70;99.90;;;;;;5139702;27;20471;-42
2024/02/19 04:32:43;;;;;;;2.90;0.90;;;10.70;99.90;;;;;;5137591;27;20444;-43
2024/02/19 04:35:08;;;;;;;1.23;1.13;;;10.70;99.90;;;;;;5138780;27;20175;-45
2024/02/19 04:37:34;;;;;;;1.50;0.83;;;10.70;99.90;;;;;;5137124;27;20174;-43
2024/02/19 04:40:00;;;;;;;1.87;0.80;;;10.70;99.90;;;;;;5136239;27;20175;-42
2024/02/19 04:42:26;;;;;;;1.57;1.13;;;10.60;99.90;;;;;;5137202;27;20176;-43
2024/02/19 04:44:51;;;;;;;1.73;1.20;;;10.70;99.90;;;;;;5136114;27;20882;-42
2024/02/19 04:47:17;;;;;;;1.50;0.90;;;10.60;99.90;;;;;;5135950;27;20190;-44
2024/02/19 04:49:43;;;;;;;1.50;1.10;;;10.60;99.90;;;;;;5137056;27;20187;-42
2024/02/19 04:52:08;;;;;;;1.53;1.07;;;10.60;99.90;;;;;;5119028;27;20449;-42
2024/02/19 04:54:34;;;;;;;1.90;1.20;;;10.60;99.90;;;;;;5138234;27;20177;-45
2024/02/19 04:57:00;;;;;;;2.07;1.57;;;10.60;99.90;;;;;;5119974;27;20522;-42
2024/02/19 04:59:25;;;;;;;2.17;1.40;;;10.50;99.90;;;;;;5138166;27;20187;-42
2024/02/19 05:01:53;;;;;;;1.77;1.50;;;10.50;99.90;;;;;;5138271;27;20171;-44
2024/02/19 05:04:19;;;;;;;1.83;1.63;;;10.50;99.90;;;;;;5137366;27;20176;-43
2024/02/19 05:06:45;;;;;;;2.53;1.83;;;10.50;99.90;;;;;;5137733;27;20437;-42
2024/02/19 05:09:11;;;;;;;2.00;1.70;;;10.50;99.90;;;;;;5137710;27;20214;-43
2024/02/19 05:11:36;;;;;;;2.43;2.23;;;10.50;99.90;;;;;;5136954;27;20417;-41
2024/02/19 05:14:02;;;;;;;2.33;1.60;;;10.50;99.90;;;;;;5135884;27;20262;-42
2024/02/19 05:16:27;;;;;;;2.20;2.00;;;10.50;99.90;;;;;;5136320;27;20174;-41
2024/02/19 05:18:53;;;;;;;3.00;1.90;;;10.50;99.90;;;;;;5135937;27;20175;-43
2024/02/19 05:21:18;;;;;;;2.90;1.90;;;10.50;99.90;;;;;;5138132;27;20262;-46
2024/02/19 05:23:45;;;;;;;2.40;2.10;;;10.50;99.90;;;;;;5138462;27;20197;-43
2024/02/19 05:26:10;;;;;;;2.17;1.70;;;10.50;99.90;;;;;;5137811;27;20214;-43
2024/02/19 05:28:36;;;;;;;2.20;1.60;;;10.50;99.90;;;;;;5119735;27;20424;-44
2024/02/19 05:31:03;;;;;;;2.37;2.00;;;10.50;99.90;;;;;;5137161;27;20228;-44
2024/02/19 05:33:29;;;;;;;2.50;2.10;;;10.50;99.90;;;;;;5117547;27;20458;-44
2024/02/19 05:35:54;;;;;;;3.97;3.00;;;10.50;99.90;;;;;;5137820;27;20435;-43
2024/02/19 05:38:20;;;;;;;3.50;2.40;;;10.50;99.90;;;;;;5118144;27;20175;-41
2024/02/19 05:40:46;;;;;;;2.93;2.63;;;10.50;99.90;;;;;;5137584;27;20190;-41
2024/02/19 05:43:11;;;;;;;2.50;2.30;;;10.50;99.90;;;;;;5137739;27;20175;-44
2024/02/19 05:45:37;;;;;;;2.77;2.30;;;10.50;99.90;;;;;;5135753;27;20226;-43
2024/02/19 05:48:03;;;;;;;4.00;3.10;;;10.50;99.90;;;;;;5134927;27;20167;-43
2024/02/19 05:50:30;;;;;;;3.93;2.97;;;10.50;99.90;;;;;;5117961;28;20306;-42
2024/02/19 05:52:56;;;;;;;4.03;3.10;;;10.50;99.90;;;;;;5134944;27;20425;-41
2024/02/19 05:55:21;;;;;;;3.70;3.20;;;10.50;99.90;;;;;;5135970;27;20405;-41
2024/02/19 05:57:47;;;;;;;6.03;3.10;;;10.50;99.90;;;;;;5138860;27;20194;-41
2024/02/19 06:00:13;;;;;;;5.13;3.33;;;10.50;99.90;;;;;;5137466;27;20171;-40
2024/02/19 06:02:42;;;;;;;5.13;3.37;;;10.50;99.90;;;;;;5137914;27;20266;-40
2024/02/19 06:05:09;;;;;;;3.43;2.80;;;10.50;99.90;;;;;;5139534;27;21011;-42
2024/02/19 06:07:36;;;;;;;4.57;2.90;;;10.40;99.90;;;;;;5121802;27;20451;-40
2024/02/19 06:10:04;;;;;;;3.63;3.17;;;10.40;99.90;;;;;;5135571;27;20533;-42
2024/02/19 06:12:31;;;;;;;5.30;3.07;;;10.40;99.90;;;;;;5100901;28;20433;-41
2024/02/19 06:14:56;;;;;;;4.00;3.33;;;10.40;99.90;;;;;;5100712;28;20524;-43
2024/02/19 06:17:22;;;;;;;2.93;2.63;;;10.40;99.90;;;;;;5117298;28;20531;-43
2024/02/19 06:19:48;;;;;;;4.30;2.80;;;10.40;99.90;;;;;;5099223;28;20548;-44
2024/02/19 06:22:14;;;;;;;3.47;3.17;;;10.40;99.90;;;;;;5120146;28;20181;-44
2024/02/19 06:24:40;;;;;;;8.23;4.30;;;10.40;99.90;;;;;;5085067;28;20593;-42
2024/02/19 06:27:09;;;;;;;4.83;3.33;;;10.40;99.90;;;;;;5117113;28;20457;-41
2024/02/19 06:29:34;;;;;;;6.07;3.50;;;10.40;99.90;;;;;;5116974;28;20436;-43
2024/02/19 06:32:00;;;;;;;3.30;2.83;;;10.30;89.20;;;;;;5100910;28;20693;-41
2024/02/19 06:34:26;;;;;;;3.70;3.20;;;10.30;34.90;;;;;;5098185;28;20179;-42
2024/02/19 06:36:52;;;;;;;4.10;3.00;;;10.30;17.70;;;;;;5098061;28;20191;-44
2024/02/19 06:39:20;;;;;;;5.40;2.87;;;10.30;1.00;;;;;;5116952;28;20550;-41
2024/02/19 06:41:46;;;;;;;5.00;2.73;;;10.30;1.00;;;;;;5098821;28;20711;-41
2024/02/19 06:44:12;;;;;;;3.30;2.60;;;10.20;1.00;;;;;;5118644;28;20717;-42
2024/02/19 06:46:38;;;;;;;4.83;3.60;;;10.30;1.00;;;;;;5118302;28;20474;-46
2024/02/19 06:49:04;;;;;;;4.57;2.57;;;10.30;1.00;;;;;;5099539;28;20414;-41
2024/02/19 06:51:30;;;;;;;3.50;2.73;;;10.30;1.00;;;;;;5114464;28;20467;-42
2024/02/19 06:53:55;;;;;;;4.20;2.70;;;10.30;1.00;;;;;;5119246;28;20452;-43
2024/02/19 06:56:21;;;;;;;4.30;3.17;;;10.30;1.00;;;;;;5102070;28;20204;-41
2024/02/19 06:58:47;;;;;;;7.47;2.57;;;10.30;1.00;;;;;;5118027;28;20255;-43
2024/02/19 07:01:13;;;;;;;7.80;3.60;;;10.30;1.00;;;;;;5116727;28;20229;-43
2024/02/19 07:03:39;;;;;;;5.33;3.00;;;10.30;1.00;;;;;;5119069;28;20190;-42
2024/02/19 07:06:06;;;;;;;4.67;3.40;;;10.30;1.00;;;;;;5120133;27;20567;-41
2024/02/19 07:08:32;;;;;;;5.07;2.50;;;10.30;1.00;;;;;;5119035;28;20168;-41
2024/02/19 07:10:57;;;;;;;3.70;2.53;;;10.30;99.90;;;;;;5137660;27;20455;-41
2024/02/19 07:13:23;;;;;;;4.03;2.43;;;10.30;99.90;;;;;;5120418;27;20177;-42
2024/02/19 07:15:49;;;;;;;4.33;2.50;;;10.30;99.90;;;;;;5133297;27;20197;-41
2024/02/19 07:18:14;;;;;;;4.60;2.53;;;10.40;99.90;;;;;;5139711;27;20190;-42
2024/02/19 07:20:40;;;;;;;3.80;2.30;;;10.40;99.90;;;;;;5138052;27;20234;-43
2024/02/19 07:23:06;;;;;;;4.57;2.47;;;10.40;99.90;;;;;;5136737;27;20350;-43
2024/02/19 07:25:31;;;;;;;4.13;2.00;;;10.40;17.90;;;;;;5136102;27;20289;-43
2024/02/19 07:27:57;;;;;;;2.90;1.83;;;10.40;1.00;;;;;;5119899;27;20245;-42
2024/02/19 07:30:23;;;;;;;2.83;2.20;;;10.50;1.00;;;;;;5138113;27;20183;-43
2024/02/19 07:32:48;;;;;;;8.87;2.07;;;10.60;1.00;;;;;;5139346;27;20187;-45
2024/02/19 07:35:14;;;;;;;4.30;2.00;;;10.60;1.00;;;;;;5137064;27;20203;-42
2024/02/19 07:37:39;;;;;;;3.50;1.90;;;10.60;1.00;;;;;;5136498;27;20178;-43
2024/02/19 07:40:06;;;;;;;2.00;1.57;;;10.60;99.90;;;;;;5136783;27;20172;-42
2024/02/19 07:42:32;;;;;;;3.40;1.70;;;10.70;99.90;;;;;;5136864;27;20171;-43
2024/02/19 07:44:57;;;;;;;3.87;2.13;;;10.80;99.90;;;;;;5136132;27;20909;-42
2024/02/19 07:47:23;;;;;;;2.80;2.10;;;10.80;73.30;;;;;;5136137;27;20175;-44
2024/02/19 07:49:49;;;;;;;3.70;2.30;;;10.90;1.00;;;;;;5137073;27;20448;-44
2024/02/19 07:52:14;;;;;;;2.70;1.70;;;11.00;1.00;;;;;;5137394;27;20436;-44
2024/02/19 07:54:40;;;;;;;3.50;2.10;;;11.10;99.90;;;;;;5138834;27;20186;-42
2024/02/19 07:57:06;;;;;;;4.93;2.80;;;11.10;99.90;;;;;;5119799;27;20240;-43
2024/02/19 07:59:32;;;;;;;3.23;1.87;;;11.30;33.60;;;;;;5102838;27;20278;-41
2024/02/19 08:01:59;;;;;;;3.33;2.07;;;11.30;1.00;;;;;;5120608;27;20460;-43
2024/02/19 08:04:27;;;;;;;3.57;2.00;;;11.50;99.90;;;;;;5122030;27;20193;-40
2024/02/19 08:06:53;;;;;;;4.03;1.77;;;11.80;1.00;;;;;;5139150;27;20424;-40
2024/02/19 08:09:19;;;;;;;2.93;2.40;;;12.00;99.90;;;;;;5137780;27;20736;-41
2024/02/19 08:11:44;;;;;;;3.50;1.97;;;12.20;99.90;;;;;;5136051;27;20477;-40
2024/02/19 08:14:10;;;;;;;3.23;1.90;;;12.30;1.00;;;;;;5137974;27;20211;-41
2024/02/19 08:16:36;;;;;;;5.20;2.50;;;12.40;1.00;;;;;;5138561;27;20460;-45
2024/02/19 08:19:02;;;;;;;3.37;2.20;;;12.50;99.90;;;;;;5137882;27;20210;-42
2024/02/19 08:21:28;;;;;;;4.87;2.70;;;12.50;99.90;;;;;;5139604;27;20330;-43
2024/02/19 08:23:54;;;;;;;5.90;2.40;;;12.60;99.90;;;;;;5124560;27;20491;-41
2024/02/19 08:26:19;;;;;;;6.67;2.87;;;12.60;1.00;;;;;;5104899;27;20221;-42
2024/02/19 08:28:46;;;;;;;3.43;2.27;;;12.60;1.00;;;;;;5138196;27;20254;-42
2024/02/19 08:31:12;;;;;;;4.17;2.10;;;12.60;1.00;;;;;;5138193;27;20171;-42
2024/02/19 08:33:38;;;;;;;3.80;2.10;;;12.60;1.00;;;;;;5139417;27;20472;-43
2024/02/19 08:36:04;;;;;;;5.10;1.90;;;12.60;1.00;;;;;;5118487;27;20198;-42
2024/02/19 08:38:30;;;;;;;3.77;1.80;;;12.60;1.00;;;;;;5138624;27;20245;-42
2024/02/19 08:40:56;;;;;;;4.87;2.70;;;12.60;1.00;;;;;;5135850;27;20401;-42
2024/02/19 08:43:21;;;;;;;5.60;3.57;;;12.60;1.00;;;;;;5136386;27;20818;-40
2024/02/19 08:45:47;;;;;;;3.50;2.70;;;12.70;1.00;;;;;;5136505;27;20205;-41
2024/02/19 08:48:13;;;;;;;4.00;2.73;;;12.70;1.00;;;;;;5137390;27;20175;-43
2024/02/19 08:50:38;;;;;;;2.30;1.60;;;12.60;99.90;;;;;;5136592;27;20198;-41
2024/02/19 08:53:04;;;;;;;3.37;1.30;;;12.60;99.90;;;;;;5135236;27;20171;-44
2024/02/19 08:55:34;;;;;;;3.13;1.10;;;12.60;99.90;;;;;;5137293;27;20170;-40
2024/02/19 08:58:00;;;;;;;3.53;1.10;;;12.50;99.90;;;;;;5119353;27;20171;-40
2024/02/19 09:00:25;;;;;;;1.70;1.20;;;12.50;99.90;;;;;;5138042;27;20428;-42
2024/02/19 09:02:51;;;;;;;2.30;0.90;;;12.50;99.90;;;;;;5120414;27;20206;-42
2024/02/19 09:05:20;;;;;;;2.93;1.27;;;12.40;99.90;;;;;;5103641;27;20210;-42
2024/02/19 09:07:47;;;;;;;2.63;0.93;;;12.40;99.90;;;;;;5138036;27;20211;-42
2024/02/19 09:10:13;;;;;;;3.70;1.30;;;12.40;99.90;;;;;;5137373;27;20822;-42
2024/02/19 09:12:38;;;;;;;5.53;1.20;;;12.40;99.90;;;;;;5137711;27;20473;-44
2024/02/19 09:15:04;;;;;;;1.70;0.83;;;12.30;99.90;;;;;;5137650;27;20183;-42
2024/02/19 09:17:30;;;;;;;2.00;1.00;;;12.30;1.00;;;;;;5136043;27;20509;-42
2024/02/19 09:19:56;;;;;;;3.63;0.93;;;12.60;99.90;;;;;;5134127;27;20451;-42
2024/02/19 09:22:22;;;;;;;2.13;0.93;;;13.00;99.90;;;;;;5134769;27;20602;-44
2024/02/19 09:24:50;;;;;;;3.03;1.10;;;13.50;1.00;;;;;;5116975;27;20279;-45
2024/02/19 09:27:15;;;;;;;4.00;1.00;;;14.00;99.90;;;;;;5118389;27;20417;-41
2024/02/19 09:29:42;;;;;;;2.57;1.00;;;14.40;99.90;;;;;;5117529;27;20424;-42
2024/02/19 09:32:07;;;;;;;4.63;1.07;;;14.80;1.00;;;;;;5137486;27;20197;-41
2024/02/19 09:34:34;;;;;;;2.90;1.07;;;15.10;99.90;;;;;;5135375;27;20405;-42
2024/02/19 09:37:00;;;;;;;2.00;1.10;;;15.30;1.00;;;;;;5134262;27;20730;-39
2024/02/19 09:39:27;;;;;;;5.90;0.80;;;15.60;1.00;;;;;;5136282;27;20519;-44
2024/02/19 09:41:53;;;;;;;5.97;1.37;;;15.70;93.50;;;;;;5117812;27;20431;-41
2024/02/19 09:44:19;;;;;;;1.80;0.90;;;15.90;1.00;;;;;;5117280;27;20431;-41
2024/02/19 09:46:45;;;;;;;3.83;1.13;;;16.00;99.90;;;;;;5100181;27;20710;-42
2024/02/19 09:49:13;;;;;;;1.53;0.70;;;16.10;99.90;;;;;;5114457;27;20412;-44
2024/02/19 09:51:44;;;;;;;4.40;1.70;;;16.20;99.90;;;;;;5116925;27;20477;-42
2024/02/19 09:54:10;;;;;;;1.63;1.00;;;16.20;99.90;;;;;;5117580;27;20412;-42
2024/02/19 09:56:35;;;;;;;3.83;1.23;;;16.10;1.00;;;;;;5135354;27;20752;-44
2024/02/19 09:59:01;;;;;;;4.97;1.00;;;15.70;1.00;;;;;;5116528;28;20860;-40
2024/02/19 10:01:27;;;;;;;7.03;1.40;;;15.50;4.50;;;;;;5115638;28;20543;-44
2024/02/19 10:03:52;;;;;;;4.70;1.30;;;15.50;99.90;;;;;;5134206;27;20292;-44
2024/02/19 10:06:18;;;;;;;3.77;1.03;;;15.50;99.90;;;;;;5134813;27;20218;-43
2024/02/19 10:08:46;;;;;;;1.97;0.80;;;15.50;99.90;;;;;;5136334;27;20206;-44
2024/02/19 10:11:12;;;;;;;2.70;1.03;;;15.60;99.90;;;;;;5134618;27;20453;-43
2024/02/19 10:13:41;;;;;;;3.67;0.80;;;15.70;99.90;;;;;;5114502;28;20448;-43
2024/02/19 10:16:11;;;;;;;1.70;0.90;;;15.80;99.90;;;;;;5113073;28;20432;-43
2024/02/19 10:18:37;;;;;;;2.10;1.00;;;15.80;99.90;;;;;;5114493;28;20447;-45
2024/02/19 10:21:04;;;;;;;2.57;0.90;;;15.90;14.80;;;;;;5112680;28;20564;-44
2024/02/19 10:23:29;;;;;;;1.77;1.33;;;15.80;1.00;;;;;;5097730;28;20823;-42
2024/02/19 10:25:55;;;;;;;2.43;1.10;;;15.50;1.00;;;;;;5115788;28;20825;-44
2024/02/19 10:28:22;;;;;;;2.10;1.40;;;15.20;1.00;;;;;;5114558;28;20221;-41
2024/02/19 10:30:51;;;;;;;2.87;1.60;;;14.80;1.00;;;;;;5113807;28;20188;-44
2024/02/19 10:33:18;;;;;;;3.10;1.40;;;14.60;1.00;;;;;;5116588;28;20417;-42
2024/02/19 10:35:46;;;;;;;3.20;1.50;;;14.40;1.00;;;;;;5098364;28;20453;-43
2024/02/19 10:38:11;;;;;;;5.37;1.90;;;14.20;1.00;;;;;;5081723;28;20437;-42
2024/02/19 10:40:37;;;;;;;3.70;1.27;;;14.00;1.00;;;;;;5114164;28;20414;-43
2024/02/19 10:43:03;;;;;;;4.80;1.30;;;13.90;1.00;;;;;;5116090;28;20175;-42
2024/02/19 10:45:29;;;;;;;2.37;1.23;;;13.80;1.00;;;;;;5098968;28;20222;-42
2024/02/19 10:47:55;;;;;;;3.60;1.33;;;13.70;1.00;;;;;;5099004;28;20951;-44
2024/02/19 10:50:21;;;;;;;3.20;1.30;;;13.60;1.00;;;;;;5099915;28;20182;-45
2024/02/19 10:52:49;;;;;;;7.67;1.93;;;13.60;1.00;;;;;;5115913;28;20424;-44
2024/02/19 10:55:16;;;;;;;1.73;0.97;;;13.70;1.00;;;;;;5099879;28;20521;-43
2024/02/19 10:57:50;;;;;;;4.03;2.33;;;13.70;1.00;;;;;;5100842;28;20433;-42
2024/02/19 11:00:18;;;;;;;4.93;2.10;;;13.70;1.00;;;;;;5118589;28;20429;-41
2024/02/19 11:02:44;;;;;;;2.97;1.70;;;13.70;1.00;;;;;;5119510;28;20520;-44
2024/02/19 11:05:10;;;;;;;4.37;1.90;;;13.70;1.00;;;;;;5101359;28;20800;-42
2024/02/19 11:07:37;;;;;;;2.37;1.47;;;13.80;1.00;;;;;;5119749;28;20589;-42
2024/02/19 11:10:04;;;;;;;4.90;1.50;;;13.90;1.00;;;;;;5101216;28;20410;-43
2024/02/19 11:12:30;;;;;;;5.63;1.50;;;14.00;1.00;;;;;;5099441;28;20421;-45
2024/02/19 11:14:56;;;;;;;4.20;1.30;;;14.10;1.00;;;;;;5116969;28;20502;-44
2024/02/19 11:17:25;;;;;;;3.73;1.10;;;14.20;1.00;;;;;;5117402;28;20652;-43
2024/02/19 11:19:53;;;;;;;11.33;1.83;;;14.60;99.90;;;;;;5115918;28;20454;-46
2024/02/19 11:22:30;;;;;;;3.20;1.30;;;15.40;2.90;;;;;;5118225;28;20423;-47
2024/02/19 11:24:57;;;;;;;3.07;1.23;;;16.20;99.90;;;;;;5118215;28;20927;-46
2024/02/19 11:27:22;;;;;;;1.93;0.87;;;17.10;99.90;;;;;;5117301;28;20428;-46
2024/02/19 11:30:01;;;;;;;3.67;1.10;;;17.90;22.30;;;;;;5116890;28;20414;-46
2024/02/19 11:32:27;;;;;;;1.53;0.87;;;18.70;1.00;;;;;;5119072;28;20642;-46
2024/02/19 11:34:52;;;;;;;3.10;1.30;;;19.60;1.00;;;;;;5118557;28;20496;-47
2024/02/19 11:37:18;;;;;;;2.80;1.33;;;20.40;1.00;;;;;;5100992;28;20211;-49
2024/02/19 11:39:44;;;;;;;3.10;1.50;;;21.10;1.00;;;;;;5118809;28;20561;-43
2024/02/19 11:42:14;;;;;;;2.27;1.00;;;21.30;1.00;;;;;;5117449;28;20239;-45
2024/02/19 11:44:40;;;;;;;2.13;1.20;;;21.30;1.00;;;;;;5116295;28;20186;-47
2024/02/19 11:47:07;;;;;;;2.27;1.10;;;21.30;1.00;;;;;;5116422;28;20462;-46
2024/02/19 11:49:33;;;;;;;2.13;1.00;;;21.10;1.00;;;;;;5099638;28;20436;-45
2024/02/19 11:52:00;;;;;;;7.33;1.43;;;21.00;1.00;;;;;;5116512;28;20836;-46
2024/02/19 11:54:26;;;;;;;5.63;1.10;;;20.80;1.00;;;;;;5116054;28;20241;-45
2024/02/19 11:56:52;;;;;;;2.97;1.20;;;20.50;1.00;;;;;;5117017;28;20823;-44
2024/02/19 11:59:26;;;;;;;4.23;3.40;;;20.10;1.00;;;;;;5117464;28;20180;-42
2024/02/19 12:01:55;;;;;;;2.63;1.30;;;19.70;1.00;;;;;;5117244;28;20405;-46
2024/02/19 12:04:21;;;;;;;4.90;1.50;;;19.10;99.90;;;;;;5099032;28;20448;-41
2024/02/19 12:06:47;;;;;;;3.00;1.40;;;18.50;99.90;;;;;;5115831;28;20465;-43
2024/02/19 12:09:13;;;;;;;4.00;1.60;;;17.90;99.90;;;;;;5117705;28;20176;-41
2024/02/19 12:11:43;;;;;;;3.20;1.50;;;17.60;99.90;;;;;;5116374;28;20413;-43
2024/02/19 12:14:13;;;;;;;3.63;1.17;;;17.20;99.90;;;;;;5097904;28;20184;-45
2024/02/19 12:16:39;;;;;;;2.50;1.20;;;16.90;99.90;;;;;;5117117;28;20711;-43
2024/02/19 12:19:05;;;;;;;2.30;0.90;;;16.60;99.90;;;;;;5098999;28;20509;-41
2024/02/19 12:21:32;;;;;;;2.50;1.23;;;16.40;99.90;;;;;;5114979;28;20476;-41
2024/02/19 12:24:00;;;;;;;3.43;3.00;;;16.20;99.90;;;;;;5115545;28;20437;-43
2024/02/19 12:26:26;;;;;;;6.23;2.97;;;16.00;99.90;;;;;;5097329;28;20704;-41
2024/02/19 12:28:52;;;;;;;5.07;1.53;;;15.80;99.90;;;;;;5095536;28;20716;-42
2024/02/19 12:31:17;;;;;;;3.80;1.90;;;15.60;1.00;;;;;;5114358;28;20413;-41
2024/02/19 12:33:44;;;;;;;4.03;1.43;;;15.40;1.00;;;;;;5080919;28;20624;-42
2024/02/19 12:36:12;;;;;;;2.83;1.80;;;15.20;1.00;;;;;;5097888;28;20191;-41
2024/02/19 12:38:45;;;;;;;4.43;1.40;;;15.00;1.00;;;;;;5095232;28;20855;-42
2024/02/19 12:41:18;;;;;;;2.87;1.20;;;14.90;1.00;;;;;;5113770;28;20586;-44
2024/02/19 12:43:44;;;;;;;8.73;1.87;;;14.80;1.00;;;;;;5114615;28;20413;-46